sensor_id;sensor_type;location;lat;lon;timestamp;P1;durP1;ratioP1;P2;durP2;ratioP2
38591;SDS011;24356;48.460;11.450;2023-07-30T00:01:42;3.50;;;2.53;;
38591;SDS011;24356;48.460;11.450;2023-07-30T00:04:08;4.05;;;2.70;;
38591;SDS011;24356;48.460;11.450;2023-07-30T00:06:34;5.50;;;2.80;;
38591;SDS011;24356;48.460;11.450;2023-07-30T00:08:59;4.07;;;2.63;;
38591;SDS011;24356;48.460;11.450;2023-07-30T00:11:25;6.63;;;2.85;;
38591;SDS011;24356;48.460;11.450;2023-07-30T00:13:51;3.97;;;2.70;;
38591;SDS011;24356;48.460;11.450;2023-07-30T00:16:16;3.92;;;2.60;;
38591;SDS011;24356;48.460;11.450;2023-07-30T00:18:42;5.15;;;2.75;;
38591;SDS011;24356;48.460;11.450;2023-07-30T00:21:07;3.90;;;2.83;;
38591;SDS011;24356;48.460;11.450;2023-07-30T00:23:33;3.10;;;2.70;;
38591;SDS011;24356;48.460;11.450;2023-07-30T00:25:58;3.58;;;2.50;;
38591;SDS011;24356;48.460;11.450;2023-07-30T00:28:24;3.63;;;2.40;;
38591;SDS011;24356;48.460;11.450;2023-07-30T00:30:49;3.97;;;2.47;;
38591;SDS011;24356;48.460;11.450;2023-07-30T00:33:15;3.80;;;2.47;;
38591;SDS011;24356;48.460;11.450;2023-07-30T00:35:41;4.07;;;2.60;;
38591;SDS011;24356;48.460;11.450;2023-07-30T00:38:06;2.92;;;2.33;;
38591;SDS011;24356;48.460;11.450;2023-07-30T00:40:32;5.53;;;3.28;;
38591;SDS011;24356;48.460;11.450;2023-07-30T00:42:57;4.80;;;2.53;;
38591;SDS011;24356;48.460;11.450;2023-07-30T00:45:23;3.75;;;2.42;;
38591;SDS011;24356;48.460;11.450;2023-07-30T00:47:49;3.88;;;2.60;;
38591;SDS011;24356;48.460;11.450;2023-07-30T00:50:14;3.40;;;2.30;;
38591;SDS011;24356;48.460;11.450;2023-07-30T00:52:42;3.15;;;2.25;;
38591;SDS011;24356;48.460;11.450;2023-07-30T00:55:08;3.55;;;2.60;;
38591;SDS011;24356;48.460;11.450;2023-07-30T00:57:35;5.95;;;2.50;;
38591;SDS011;24356;48.460;11.450;2023-07-30T01:00:02;3.10;;;2.63;;
38591;SDS011;24356;48.460;11.450;2023-07-30T01:02:31;5.15;;;2.33;;
38591;SDS011;24356;48.460;11.450;2023-07-30T01:04:57;5.20;;;2.70;;
38591;SDS011;24356;48.460;11.450;2023-07-30T01:07:25;3.83;;;2.40;;
38591;SDS011;24356;48.460;11.450;2023-07-30T01:09:50;4.05;;;2.63;;
38591;SDS011;24356;48.460;11.450;2023-07-30T01:12:16;2.90;;;2.58;;
38591;SDS011;24356;48.460;11.450;2023-07-30T01:14:42;5.10;;;2.53;;
38591;SDS011;24356;48.460;11.450;2023-07-30T01:17:12;2.72;;;2.28;;
38591;SDS011;24356;48.460;11.450;2023-07-30T01:19:38;6.53;;;2.38;;
38591;SDS011;24356;48.460;11.450;2023-07-30T01:22:04;3.75;;;2.65;;
38591;SDS011;24356;48.460;11.450;2023-07-30T01:24:30;3.17;;;2.55;;
38591;SDS011;24356;48.460;11.450;2023-07-30T01:27:01;3.97;;;2.60;;
38591;SDS011;24356;48.460;11.450;2023-07-30T01:29:40;3.15;;;2.35;;
38591;SDS011;24356;48.460;11.450;2023-07-30T01:32:08;2.80;;;2.22;;
38591;SDS011;24356;48.460;11.450;2023-07-30T01:34:36;2.95;;;2.40;;
38591;SDS011;24356;48.460;11.450;2023-07-30T01:37:08;5.50;;;2.70;;
38591;SDS011;24356;48.460;11.450;2023-07-30T01:39:36;2.60;;;2.40;;
38591;SDS011;24356;48.460;11.450;2023-07-30T01:42:04;3.88;;;2.40;;
38591;SDS011;24356;48.460;11.450;2023-07-30T01:44:30;5.85;;;2.60;;
38591;SDS011;24356;48.460;11.450;2023-07-30T01:46:56;3.10;;;2.30;;
38591;SDS011;24356;48.460;11.450;2023-07-30T01:49:21;4.43;;;2.47;;
38591;SDS011;24356;48.460;11.450;2023-07-30T01:51:47;4.80;;;2.00;;
38591;SDS011;24356;48.460;11.450;2023-07-30T01:54:13;5.03;;;2.38;;
38591;SDS011;24356;48.460;11.450;2023-07-30T01:56:39;2.75;;;2.15;;
38591;SDS011;24356;48.460;11.450;2023-07-30T01:59:04;4.30;;;2.10;;
38591;SDS011;24356;48.460;11.450;2023-07-30T02:01:30;4.20;;;2.20;;
38591;SDS011;24356;48.460;11.450;2023-07-30T02:03:55;3.17;;;2.40;;
38591;SDS011;24356;48.460;11.450;2023-07-30T02:06:21;3.15;;;2.33;;
38591;SDS011;24356;48.460;11.450;2023-07-30T02:08:48;3.45;;;2.20;;
38591;SDS011;24356;48.460;11.450;2023-07-30T02:11:14;6.20;;;2.60;;
38591;SDS011;24356;48.460;11.450;2023-07-30T02:13:39;5.32;;;2.45;;
38591;SDS011;24356;48.460;11.450;2023-07-30T02:16:06;8.38;;;2.65;;
38591;SDS011;24356;48.460;11.450;2023-07-30T02:18:31;2.70;;;2.25;;
38591;SDS011;24356;48.460;11.450;2023-07-30T02:20:57;4.28;;;2.30;;
38591;SDS011;24356;48.460;11.450;2023-07-30T02:23:22;3.33;;;2.50;;
38591;SDS011;24356;48.460;11.450;2023-07-30T02:25:48;5.43;;;2.60;;
38591;SDS011;24356;48.460;11.450;2023-07-30T02:28:14;3.10;;;2.35;;
38591;SDS011;24356;48.460;11.450;2023-07-30T02:30:39;3.55;;;2.50;;
38591;SDS011;24356;48.460;11.450;2023-07-30T02:33:05;3.05;;;2.30;;
38591;SDS011;24356;48.460;11.450;2023-07-30T02:35:31;3.58;;;2.50;;
38591;SDS011;24356;48.460;11.450;2023-07-30T02:37:56;3.35;;;2.60;;
38591;SDS011;24356;48.460;11.450;2023-07-30T02:40:22;4.28;;;2.30;;
38591;SDS011;24356;48.460;11.450;2023-07-30T02:42:48;3.70;;;2.40;;
38591;SDS011;24356;48.460;11.450;2023-07-30T02:45:13;3.00;;;2.35;;
38591;SDS011;24356;48.460;11.450;2023-07-30T02:47:39;4.65;;;2.22;;
38591;SDS011;24356;48.460;11.450;2023-07-30T02:50:06;4.65;;;2.30;;
38591;SDS011;24356;48.460;11.450;2023-07-30T02:52:33;4.78;;;2.40;;
38591;SDS011;24356;48.460;11.450;2023-07-30T02:54:58;2.60;;;2.28;;
38591;SDS011;24356;48.460;11.450;2023-07-30T02:57:24;5.28;;;2.10;;
38591;SDS011;24356;48.460;11.450;2023-07-30T02:59:50;3.75;;;2.00;;
38591;SDS011;24356;48.460;11.450;2023-07-30T03:02:15;2.78;;;2.03;;
38591;SDS011;24356;48.460;11.450;2023-07-30T03:04:41;3.83;;;2.38;;
38591;SDS011;24356;48.460;11.450;2023-07-30T03:07:06;4.50;;;1.90;;
38591;SDS011;24356;48.460;11.450;2023-07-30T03:09:33;2.70;;;2.10;;
38591;SDS011;24356;48.460;11.450;2023-07-30T03:11:59;4.40;;;1.98;;
38591;SDS011;24356;48.460;11.450;2023-07-30T03:14:24;2.10;;;1.80;;
38591;SDS011;24356;48.460;11.450;2023-07-30T03:16:50;3.97;;;1.63;;
38591;SDS011;24356;48.460;11.450;2023-07-30T03:19:15;2.45;;;1.67;;
38591;SDS011;24356;48.460;11.450;2023-07-30T03:21:41;1.83;;;1.63;;
38591;SDS011;24356;48.460;11.450;2023-07-30T03:24:07;3.08;;;1.60;;
38591;SDS011;24356;48.460;11.450;2023-07-30T03:26:33;2.75;;;1.63;;
38591;SDS011;24356;48.460;11.450;2023-07-30T03:28:58;1.63;;;1.52;;
38591;SDS011;24356;48.460;11.450;2023-07-30T03:31:24;2.80;;;1.80;;
38591;SDS011;24356;48.460;11.450;2023-07-30T03:33:50;2.33;;;1.58;;
38591;SDS011;24356;48.460;11.450;2023-07-30T03:36:16;2.22;;;1.80;;
38591;SDS011;24356;48.460;11.450;2023-07-30T03:38:42;3.47;;;1.70;;
38591;SDS011;24356;48.460;11.450;2023-07-30T03:41:08;1.92;;;1.60;;
38591;SDS011;24356;48.460;11.450;2023-07-30T03:43:34;4.28;;;1.70;;
38591;SDS011;24356;48.460;11.450;2023-07-30T03:46:00;3.97;;;1.73;;
38591;SDS011;24356;48.460;11.450;2023-07-30T03:48:26;2.75;;;1.48;;
38591;SDS011;24356;48.460;11.450;2023-07-30T03:50:52;1.70;;;1.30;;
38591;SDS011;24356;48.460;11.450;2023-07-30T03:53:19;4.00;;;1.70;;
38591;SDS011;24356;48.460;11.450;2023-07-30T03:55:44;2.38;;;1.60;;
38591;SDS011;24356;48.460;11.450;2023-07-30T03:58:10;4.13;;;1.80;;
38591;SDS011;24356;48.460;11.450;2023-07-30T04:00:36;2.95;;;1.67;;
38591;SDS011;24356;48.460;11.450;2023-07-30T04:03:01;2.83;;;1.30;;
38591;SDS011;24356;48.460;11.450;2023-07-30T04:05:27;3.80;;;1.80;;
38591;SDS011;24356;48.460;11.450;2023-07-30T04:07:53;4.82;;;1.52;;
38591;SDS011;24356;48.460;11.450;2023-07-30T04:10:19;3.97;;;1.80;;
38591;SDS011;24356;48.460;11.450;2023-07-30T04:12:45;5.53;;;1.65;;
38591;SDS011;24356;48.460;11.450;2023-07-30T04:15:11;1.98;;;1.58;;
38591;SDS011;24356;48.460;11.450;2023-07-30T04:17:36;2.72;;;1.95;;
38591;SDS011;24356;48.460;11.450;2023-07-30T04:20:02;2.25;;;1.70;;
38591;SDS011;24356;48.460;11.450;2023-07-30T04:22:29;3.80;;;1.77;;
38591;SDS011;24356;48.460;11.450;2023-07-30T04:24:55;6.20;;;1.90;;
38591;SDS011;24356;48.460;11.450;2023-07-30T04:27:20;2.03;;;1.60;;
38591;SDS011;24356;48.460;11.450;2023-07-30T04:29:46;3.95;;;2.10;;
38591;SDS011;24356;48.460;11.450;2023-07-30T04:32:12;4.45;;;1.90;;
38591;SDS011;24356;48.460;11.450;2023-07-30T04:34:39;5.85;;;2.22;;
38591;SDS011;24356;48.460;11.450;2023-07-30T04:37:05;4.20;;;2.28;;
38591;SDS011;24356;48.460;11.450;2023-07-30T04:39:34;2.92;;;2.15;;
38591;SDS011;24356;48.460;11.450;2023-07-30T04:42:00;4.00;;;2.58;;
38591;SDS011;24356;48.460;11.450;2023-07-30T04:44:26;3.13;;;2.40;;
38591;SDS011;24356;48.460;11.450;2023-07-30T04:46:52;3.88;;;2.20;;
38591;SDS011;24356;48.460;11.450;2023-07-30T04:49:18;5.50;;;2.15;;
38591;SDS011;24356;48.460;11.450;2023-07-30T04:51:43;9.13;;;2.67;;
38591;SDS011;24356;48.460;11.450;2023-07-30T04:54:09;5.95;;;2.70;;
38591;SDS011;24356;48.460;11.450;2023-07-30T04:56:35;5.97;;;2.60;;
38591;SDS011;24356;48.460;11.450;2023-07-30T04:59:01;4.80;;;3.22;;
38591;SDS011;24356;48.460;11.450;2023-07-30T05:01:27;8.05;;;3.42;;
38591;SDS011;24356;48.460;11.450;2023-07-30T05:03:52;5.65;;;3.20;;
38591;SDS011;24356;48.460;11.450;2023-07-30T05:06:18;6.50;;;3.88;;
38591;SDS011;24356;48.460;11.450;2023-07-30T05:08:44;4.38;;;2.78;;
38591;SDS011;24356;48.460;11.450;2023-07-30T05:11:09;6.05;;;3.63;;
38591;SDS011;24356;48.460;11.450;2023-07-30T05:13:35;6.80;;;3.38;;
38591;SDS011;24356;48.460;11.450;2023-07-30T05:16:02;5.82;;;3.25;;
38591;SDS011;24356;48.460;11.450;2023-07-30T05:18:28;4.35;;;3.17;;
38591;SDS011;24356;48.460;11.450;2023-07-30T05:20:54;4.30;;;3.35;;
38591;SDS011;24356;48.460;11.450;2023-07-30T05:23:20;5.05;;;3.13;;
38591;SDS011;24356;48.460;11.450;2023-07-30T05:25:45;3.95;;;3.00;;
38591;SDS011;24356;48.460;11.450;2023-07-30T05:28:11;4.75;;;3.40;;
38591;SDS011;24356;48.460;11.450;2023-07-30T05:30:37;5.25;;;3.53;;
38591;SDS011;24356;48.460;11.450;2023-07-30T05:33:03;5.65;;;3.60;;
38591;SDS011;24356;48.460;11.450;2023-07-30T05:35:28;6.50;;;3.25;;
38591;SDS011;24356;48.460;11.450;2023-07-30T05:37:54;7.03;;;3.55;;
38591;SDS011;24356;48.460;11.450;2023-07-30T05:40:20;7.38;;;3.20;;
38591;SDS011;24356;48.460;11.450;2023-07-30T05:42:46;4.38;;;3.50;;
38591;SDS011;24356;48.460;11.450;2023-07-30T05:45:12;5.65;;;3.47;;
38591;SDS011;24356;48.460;11.450;2023-07-30T05:47:37;4.82;;;3.60;;
38591;SDS011;24356;48.460;11.450;2023-07-30T05:50:03;8.77;;;3.42;;
38591;SDS011;24356;48.460;11.450;2023-07-30T05:52:29;7.20;;;3.40;;
38591;SDS011;24356;48.460;11.450;2023-07-30T05:54:55;4.15;;;3.25;;
38591;SDS011;24356;48.460;11.450;2023-07-30T05:57:21;5.30;;;3.40;;
38591;SDS011;24356;48.460;11.450;2023-07-30T05:59:46;7.25;;;3.60;;
38591;SDS011;24356;48.460;11.450;2023-07-30T06:02:12;3.90;;;3.30;;
38591;SDS011;24356;48.460;11.450;2023-07-30T06:04:37;6.25;;;3.10;;
38591;SDS011;24356;48.460;11.450;2023-07-30T06:07:03;4.45;;;3.15;;
38591;SDS011;24356;48.460;11.450;2023-07-30T06:09:29;4.10;;;3.08;;
38591;SDS011;24356;48.460;11.450;2023-07-30T06:11:56;4.75;;;3.60;;
38591;SDS011;24356;48.460;11.450;2023-07-30T06:14:25;5.88;;;3.17;;
38591;SDS011;24356;48.460;11.450;2023-07-30T06:16:52;4.85;;;3.05;;
38591;SDS011;24356;48.460;11.450;2023-07-30T06:19:19;3.58;;;2.90;;
38591;SDS011;24356;48.460;11.450;2023-07-30T06:21:45;6.88;;;3.15;;
38591;SDS011;24356;48.460;11.450;2023-07-30T06:24:11;3.67;;;3.03;;
38591;SDS011;24356;48.460;11.450;2023-07-30T06:26:41;5.00;;;3.50;;
38591;SDS011;24356;48.460;11.450;2023-07-30T06:29:07;3.92;;;3.10;;
38591;SDS011;24356;48.460;11.450;2023-07-30T06:31:33;4.72;;;3.20;;
38591;SDS011;24356;48.460;11.450;2023-07-30T06:34:00;6.10;;;3.15;;
38591;SDS011;24356;48.460;11.450;2023-07-30T06:36:25;5.95;;;3.35;;
38591;SDS011;24356;48.460;11.450;2023-07-30T06:38:51;4.10;;;3.00;;
38591;SDS011;24356;48.460;11.450;2023-07-30T06:41:17;3.20;;;2.53;;
38591;SDS011;24356;48.460;11.450;2023-07-30T06:43:43;3.35;;;2.88;;
38591;SDS011;24356;48.460;11.450;2023-07-30T06:46:09;3.38;;;2.90;;
38591;SDS011;24356;48.460;11.450;2023-07-30T06:48:34;4.97;;;3.03;;
38591;SDS011;24356;48.460;11.450;2023-07-30T06:51:00;3.60;;;2.53;;
38591;SDS011;24356;48.460;11.450;2023-07-30T06:53:25;3.15;;;2.78;;
38591;SDS011;24356;48.460;11.450;2023-07-30T06:55:51;4.10;;;2.65;;
38591;SDS011;24356;48.460;11.450;2023-07-30T06:58:17;3.75;;;2.65;;
38591;SDS011;24356;48.460;11.450;2023-07-30T07:00:42;5.10;;;2.90;;
38591;SDS011;24356;48.460;11.450;2023-07-30T07:03:08;5.63;;;2.67;;
38591;SDS011;24356;48.460;11.450;2023-07-30T07:05:34;3.78;;;2.30;;
38591;SDS011;24356;48.460;11.450;2023-07-30T07:07:59;3.63;;;2.58;;
38591;SDS011;24356;48.460;11.450;2023-07-30T07:10:25;3.65;;;2.78;;
38591;SDS011;24356;48.460;11.450;2023-07-30T07:12:50;3.70;;;2.47;;
38591;SDS011;24356;48.460;11.450;2023-07-30T07:15:16;3.40;;;2.53;;
38591;SDS011;24356;48.460;11.450;2023-07-30T07:17:42;3.17;;;2.42;;
38591;SDS011;24356;48.460;11.450;2023-07-30T07:20:07;4.65;;;2.30;;
38591;SDS011;24356;48.460;11.450;2023-07-30T07:22:33;2.80;;;2.30;;
38591;SDS011;24356;48.460;11.450;2023-07-30T07:24:59;2.95;;;2.20;;
38591;SDS011;24356;48.460;11.450;2023-07-30T07:27:25;2.60;;;2.17;;
38591;SDS011;24356;48.460;11.450;2023-07-30T07:29:52;2.70;;;2.25;;
38591;SDS011;24356;48.460;11.450;2023-07-30T07:32:18;5.10;;;2.25;;
38591;SDS011;24356;48.460;11.450;2023-07-30T07:34:50;3.22;;;1.80;;
38591;SDS011;24356;48.460;11.450;2023-07-30T07:37:16;2.65;;;1.95;;
38591;SDS011;24356;48.460;11.450;2023-07-30T07:39:43;2.65;;;2.10;;
38591;SDS011;24356;48.460;11.450;2023-07-30T07:42:10;2.40;;;2.00;;
38591;SDS011;24356;48.460;11.450;2023-07-30T07:44:35;3.53;;;1.90;;
38591;SDS011;24356;48.460;11.450;2023-07-30T07:47:01;2.90;;;1.90;;
38591;SDS011;24356;48.460;11.450;2023-07-30T07:49:27;3.53;;;2.10;;
38591;SDS011;24356;48.460;11.450;2023-07-30T07:51:52;3.40;;;1.70;;
38591;SDS011;24356;48.460;11.450;2023-07-30T07:54:18;4.10;;;2.03;;
38591;SDS011;24356;48.460;11.450;2023-07-30T07:56:43;3.47;;;2.30;;
38591;SDS011;24356;48.460;11.450;2023-07-30T07:59:09;2.30;;;2.00;;
38591;SDS011;24356;48.460;11.450;2023-07-30T08:01:35;3.67;;;2.15;;
38591;SDS011;24356;48.460;11.450;2023-07-30T08:04:00;4.57;;;1.90;;
38591;SDS011;24356;48.460;11.450;2023-07-30T08:06:26;3.33;;;2.10;;
38591;SDS011;24356;48.460;11.450;2023-07-30T08:08:52;2.35;;;1.77;;
38591;SDS011;24356;48.460;11.450;2023-07-30T08:11:18;3.67;;;2.00;;
38591;SDS011;24356;48.460;11.450;2023-07-30T08:13:43;3.33;;;1.98;;
38591;SDS011;24356;48.460;11.450;2023-07-30T08:16:10;4.85;;;3.53;;
38591;SDS011;24356;48.460;11.450;2023-07-30T08:18:36;2.65;;;2.15;;
38591;SDS011;24356;48.460;11.450;2023-07-30T08:21:02;3.95;;;1.92;;
38591;SDS011;24356;48.460;11.450;2023-07-30T08:23:27;3.20;;;1.92;;
38591;SDS011;24356;48.460;11.450;2023-07-30T08:25:53;3.40;;;2.15;;
38591;SDS011;24356;48.460;11.450;2023-07-30T08:28:19;3.42;;;2.88;;
38591;SDS011;24356;48.460;11.450;2023-07-30T08:30:44;2.00;;;1.80;;
38591;SDS011;24356;48.460;11.450;2023-07-30T08:33:11;4.03;;;1.90;;
38591;SDS011;24356;48.460;11.450;2023-07-30T08:35:37;2.55;;;2.05;;
38591;SDS011;24356;48.460;11.450;2023-07-30T08:38:03;2.55;;;1.80;;
38591;SDS011;24356;48.460;11.450;2023-07-30T08:40:30;4.20;;;2.30;;
38591;SDS011;24356;48.460;11.450;2023-07-30T08:42:56;2.50;;;1.88;;
38591;SDS011;24356;48.460;11.450;2023-07-30T08:45:22;2.90;;;2.20;;
38591;SDS011;24356;48.460;11.450;2023-07-30T08:47:48;2.67;;;2.00;;
38591;SDS011;24356;48.460;11.450;2023-07-30T08:50:15;2.17;;;1.90;;
38591;SDS011;24356;48.460;11.450;2023-07-30T08:52:41;2.75;;;1.65;;
38591;SDS011;24356;48.460;11.450;2023-07-30T08:55:07;1.65;;;1.55;;
38591;SDS011;24356;48.460;11.450;2023-07-30T08:57:33;3.80;;;1.80;;
38591;SDS011;24356;48.460;11.450;2023-07-30T09:00:05;2.85;;;2.00;;
38591;SDS011;24356;48.460;11.450;2023-07-30T09:02:49;2.20;;;1.80;;
38591;SDS011;24356;48.460;11.450;2023-07-30T09:05:16;2.55;;;1.77;;
38591;SDS011;24356;48.460;11.450;2023-07-30T09:07:45;2.40;;;1.60;;
38591;SDS011;24356;48.460;11.450;2023-07-30T09:10:12;3.78;;;1.95;;
38591;SDS011;24356;48.460;11.450;2023-07-30T09:12:39;2.78;;;2.00;;
38591;SDS011;24356;48.460;11.450;2023-07-30T09:15:05;2.25;;;1.77;;
38591;SDS011;24356;48.460;11.450;2023-07-30T09:17:32;2.55;;;1.70;;
38591;SDS011;24356;48.460;11.450;2023-07-30T09:19:59;2.33;;;1.55;;
38591;SDS011;24356;48.460;11.450;2023-07-30T09:22:25;2.20;;;1.90;;
38591;SDS011;24356;48.460;11.450;2023-07-30T09:24:52;4.13;;;2.03;;
38591;SDS011;24356;48.460;11.450;2023-07-30T09:27:22;3.65;;;1.90;;
38591;SDS011;24356;48.460;11.450;2023-07-30T09:29:57;1.98;;;1.63;;
38591;SDS011;24356;48.460;11.450;2023-07-30T09:32:27;2.75;;;2.08;;
38591;SDS011;24356;48.460;11.450;2023-07-30T09:34:54;4.65;;;1.48;;
38591;SDS011;24356;48.460;11.450;2023-07-30T09:37:20;2.22;;;1.77;;
38591;SDS011;24356;48.460;11.450;2023-07-30T09:39:48;1.70;;;1.30;;
38591;SDS011;24356;48.460;11.450;2023-07-30T09:42:14;4.88;;;1.58;;
38591;SDS011;24356;48.460;11.450;2023-07-30T09:44:40;3.70;;;1.55;;
38591;SDS011;24356;48.460;11.450;2023-07-30T09:47:09;2.25;;;1.60;;
38591;SDS011;24356;48.460;11.450;2023-07-30T09:49:38;2.30;;;1.60;;
38591;SDS011;24356;48.460;11.450;2023-07-30T09:52:04;3.45;;;1.67;;
38591;SDS011;24356;48.460;11.450;2023-07-30T09:54:30;2.22;;;1.60;;
38591;SDS011;24356;48.460;11.450;2023-07-30T09:56:57;1.70;;;1.50;;
38591;SDS011;24356;48.460;11.450;2023-07-30T09:59:23;2.63;;;1.60;;
38591;SDS011;24356;48.460;11.450;2023-07-30T10:01:49;2.20;;;1.67;;
38591;SDS011;24356;48.460;11.450;2023-07-30T10:04:15;2.90;;;1.40;;
38591;SDS011;24356;48.460;11.450;2023-07-30T10:09:19;1.95;;;1.60;;
38591;SDS011;24356;48.460;11.450;2023-07-30T10:11:48;4.38;;;1.65;;
38591;SDS011;24356;48.460;11.450;2023-07-30T10:14:16;2.17;;;1.70;;
38591;SDS011;24356;48.460;11.450;2023-07-30T10:16:50;3.22;;;1.60;;
38591;SDS011;24356;48.460;11.450;2023-07-30T10:19:24;4.00;;;1.60;;
38591;SDS011;24356;48.460;11.450;2023-07-30T10:21:50;1.70;;;1.38;;
38591;SDS011;24356;48.460;11.450;2023-07-30T10:24:16;2.35;;;1.42;;
38591;SDS011;24356;48.460;11.450;2023-07-30T10:26:41;2.47;;;1.70;;
38591;SDS011;24356;48.460;11.450;2023-07-30T10:31:44;2.20;;;1.60;;
38591;SDS011;24356;48.460;11.450;2023-07-30T10:34:20;1.83;;;1.55;;
38591;SDS011;24356;48.460;11.450;2023-07-30T10:36:47;3.72;;;1.65;;
38591;SDS011;24356;48.460;11.450;2023-07-30T10:41:46;3.15;;;1.58;;
38591;SDS011;24356;48.460;11.450;2023-07-30T10:44:18;1.85;;;1.20;;
38591;SDS011;24356;48.460;11.450;2023-07-30T10:46:55;1.70;;;1.10;;
38591;SDS011;24356;48.460;11.450;2023-07-30T10:49:22;1.17;;;1.05;;
38591;SDS011;24356;48.460;11.450;2023-07-30T10:51:51;3.22;;;1.20;;
38591;SDS011;24356;48.460;11.450;2023-07-30T10:54:18;1.13;;;1.02;;
38591;SDS011;24356;48.460;11.450;2023-07-30T10:56:44;2.80;;;1.38;;
38591;SDS011;24356;48.460;11.450;2023-07-30T10:59:10;2.67;;;1.17;;
38591;SDS011;24356;48.460;11.450;2023-07-30T11:01:45;2.10;;;1.30;;
38591;SDS011;24356;48.460;11.450;2023-07-30T11:04:12;1.95;;;1.23;;
38591;SDS011;24356;48.460;11.450;2023-07-30T11:06:46;2.15;;;1.25;;
38591;SDS011;24356;48.460;11.450;2023-07-30T11:09:18;2.35;;;1.20;;
38591;SDS011;24356;48.460;11.450;2023-07-30T11:11:45;3.08;;;1.30;;
38591;SDS011;24356;48.460;11.450;2023-07-30T11:14:15;1.27;;;1.10;;
38591;SDS011;24356;48.460;11.450;2023-07-30T11:16:51;2.72;;;1.30;;
38591;SDS011;24356;48.460;11.450;2023-07-30T11:19:19;4.18;;;1.58;;
38591;SDS011;24356;48.460;11.450;2023-07-30T11:21:48;1.35;;;1.02;;
38591;SDS011;24356;48.460;11.450;2023-07-30T11:24:15;2.25;;;1.30;;
38591;SDS011;24356;48.460;11.450;2023-07-30T11:26:41;2.03;;;1.27;;
38591;SDS011;24356;48.460;11.450;2023-07-30T11:29:18;4.90;;;1.20;;
38591;SDS011;24356;48.460;11.450;2023-07-30T11:31:45;1.77;;;1.35;;
38591;SDS011;24356;48.460;11.450;2023-07-30T11:34:12;1.63;;;1.13;;
38591;SDS011;24356;48.460;11.450;2023-07-30T11:36:38;1.88;;;1.40;;
38591;SDS011;24356;48.460;11.450;2023-07-30T11:39:06;2.45;;;1.42;;
38591;SDS011;24356;48.460;11.450;2023-07-30T11:41:32;3.97;;;1.35;;
38591;SDS011;24356;48.460;11.450;2023-07-30T11:43:58;3.10;;;1.30;;
38591;SDS011;24356;48.460;11.450;2023-07-30T11:46:24;2.00;;;1.30;;
38591;SDS011;24356;48.460;11.450;2023-07-30T11:48:51;1.50;;;1.25;;
38591;SDS011;24356;48.460;11.450;2023-07-30T11:51:22;2.58;;;1.35;;
38591;SDS011;24356;48.460;11.450;2023-07-30T11:53:50;2.10;;;1.40;;
38591;SDS011;24356;48.460;11.450;2023-07-30T11:56:17;1.80;;;1.48;;
38591;SDS011;24356;48.460;11.450;2023-07-30T11:58:48;1.90;;;1.50;;
38591;SDS011;24356;48.460;11.450;2023-07-30T12:01:14;2.88;;;1.40;;
38591;SDS011;24356;48.460;11.450;2023-07-30T12:03:41;2.33;;;1.40;;
38591;SDS011;24356;48.460;11.450;2023-07-30T12:06:07;2.22;;;1.40;;
38591;SDS011;24356;48.460;11.450;2023-07-30T12:08:34;3.05;;;1.50;;
38591;SDS011;24356;48.460;11.450;2023-07-30T12:11:04;2.75;;;1.40;;
38591;SDS011;24356;48.460;11.450;2023-07-30T12:13:31;1.70;;;1.30;;
38591;SDS011;24356;48.460;11.450;2023-07-30T12:15:57;3.28;;;1.60;;
38591;SDS011;24356;48.460;11.450;2023-07-30T12:18:25;3.63;;;1.50;;
38591;SDS011;24356;48.460;11.450;2023-07-30T12:20:52;5.32;;;1.60;;
38591;SDS011;24356;48.460;11.450;2023-07-30T12:23:19;3.90;;;1.52;;
38591;SDS011;24356;48.460;11.450;2023-07-30T12:25:45;1.98;;;1.40;;
38591;SDS011;24356;48.460;11.450;2023-07-30T12:28:12;2.00;;;1.50;;
38591;SDS011;24356;48.460;11.450;2023-07-30T12:30:38;3.50;;;1.35;;
38591;SDS011;24356;48.460;11.450;2023-07-30T12:33:04;2.22;;;1.55;;
38591;SDS011;24356;48.460;11.450;2023-07-30T12:35:31;2.50;;;1.50;;
38591;SDS011;24356;48.460;11.450;2023-07-30T12:37:58;3.25;;;1.55;;
38591;SDS011;24356;48.460;11.450;2023-07-30T12:40:24;1.58;;;1.23;;
38591;SDS011;24356;48.460;11.450;2023-07-30T12:42:50;2.85;;;1.20;;
38591;SDS011;24356;48.460;11.450;2023-07-30T12:45:16;2.33;;;1.45;;
38591;SDS011;24356;48.460;11.450;2023-07-30T12:47:41;2.65;;;1.23;;
38591;SDS011;24356;48.460;11.450;2023-07-30T12:50:08;2.45;;;1.30;;
38591;SDS011;24356;48.460;11.450;2023-07-30T12:52:34;2.20;;;1.60;;
38591;SDS011;24356;48.460;11.450;2023-07-30T12:55:00;1.63;;;1.52;;
38591;SDS011;24356;48.460;11.450;2023-07-30T12:57:26;2.25;;;1.40;;
38591;SDS011;24356;48.460;11.450;2023-07-30T12:59:52;2.88;;;1.67;;
38591;SDS011;24356;48.460;11.450;2023-07-30T13:02:18;2.97;;;1.40;;
38591;SDS011;24356;48.460;11.450;2023-07-30T13:04:44;1.48;;;1.20;;
38591;SDS011;24356;48.460;11.450;2023-07-30T13:07:09;1.63;;;1.30;;
38591;SDS011;24356;48.460;11.450;2023-07-30T13:09:37;1.45;;;1.17;;
38591;SDS011;24356;48.460;11.450;2023-07-30T13:12:03;2.05;;;1.40;;
38591;SDS011;24356;48.460;11.450;2023-07-30T13:14:28;2.63;;;1.30;;
38591;SDS011;24356;48.460;11.450;2023-07-30T13:16:54;2.10;;;1.10;;
38591;SDS011;24356;48.460;11.450;2023-07-30T13:19:21;3.28;;;1.40;;
38591;SDS011;24356;48.460;11.450;2023-07-30T13:21:47;2.60;;;1.30;;
38591;SDS011;24356;48.460;11.450;2023-07-30T13:24:12;4.65;;;1.67;;
38591;SDS011;24356;48.460;11.450;2023-07-30T13:26:38;1.75;;;1.50;;
38591;SDS011;24356;48.460;11.450;2023-07-30T13:29:03;1.98;;;1.58;;
38591;SDS011;24356;48.460;11.450;2023-07-30T13:31:29;2.00;;;1.50;;
38591;SDS011;24356;48.460;11.450;2023-07-30T13:33:55;2.97;;;1.42;;
38591;SDS011;24356;48.460;11.450;2023-07-30T13:36:22;1.85;;;1.48;;
38591;SDS011;24356;48.460;11.450;2023-07-30T13:38:48;2.55;;;1.48;;
38591;SDS011;24356;48.460;11.450;2023-07-30T13:41:13;1.55;;;1.30;;
38591;SDS011;24356;48.460;11.450;2023-07-30T13:43:39;1.80;;;1.27;;
38591;SDS011;24356;48.460;11.450;2023-07-30T13:46:05;2.47;;;1.30;;
38591;SDS011;24356;48.460;11.450;2023-07-30T13:48:31;4.40;;;1.60;;
38591;SDS011;24356;48.460;11.450;2023-07-30T13:50:56;3.70;;;1.38;;
38591;SDS011;24356;48.460;11.450;2023-07-30T13:53:22;3.40;;;1.55;;
38591;SDS011;24356;48.460;11.450;2023-07-30T13:55:48;2.50;;;1.30;;
38591;SDS011;24356;48.460;11.450;2023-07-30T13:58:14;4.38;;;1.33;;
38591;SDS011;24356;48.460;11.450;2023-07-30T14:00:40;1.90;;;1.52;;
38591;SDS011;24356;48.460;11.450;2023-07-30T14:03:07;1.55;;;1.23;;
38591;SDS011;24356;48.460;11.450;2023-07-30T14:05:34;7.20;;;1.70;;
38591;SDS011;24356;48.460;11.450;2023-07-30T14:07:59;2.90;;;1.50;;
38591;SDS011;24356;48.460;11.450;2023-07-30T14:10:25;5.25;;;1.40;;
38591;SDS011;24356;48.460;11.450;2023-07-30T14:12:52;2.60;;;1.35;;
38591;SDS011;24356;48.460;11.450;2023-07-30T14:15:18;3.05;;;1.48;;
38591;SDS011;24356;48.460;11.450;2023-07-30T14:17:43;2.28;;;1.42;;
38591;SDS011;24356;48.460;11.450;2023-07-30T14:20:09;3.95;;;1.60;;
38591;SDS011;24356;48.460;11.450;2023-07-30T14:22:35;2.88;;;1.67;;
38591;SDS011;24356;48.460;11.450;2023-07-30T14:25:01;1.95;;;1.52;;
38591;SDS011;24356;48.460;11.450;2023-07-30T14:27:27;1.73;;;1.40;;
38591;SDS011;24356;48.460;11.450;2023-07-30T14:29:53;2.30;;;1.60;;
38591;SDS011;24356;48.460;11.450;2023-07-30T14:32:19;1.55;;;1.40;;
38591;SDS011;24356;48.460;11.450;2023-07-30T14:34:45;1.42;;;1.30;;
38591;SDS011;24356;48.460;11.450;2023-07-30T14:37:12;1.65;;;1.50;;